createdAt,value
2023-03-28T00:09:22.844Z,14.12
2023-03-28T00:24:24.905Z,14.03
2023-03-28T00:39:27.112Z,14.05
2023-03-28T00:54:29.196Z,13.82
2023-03-28T01:09:31.497Z,13.93
2023-03-28T01:24:34.004Z,13.62
2023-03-28T01:39:36.128Z,13.04
2023-03-28T01:54:38.241Z,12.41
2023-03-28T02:09:40.396Z,11.83
2023-03-28T02:24:42.523Z,10.45
2023-03-28T02:39:44.689Z,10.46
2023-03-28T02:54:46.808Z,10.1
2023-03-28T03:09:48.905Z,9.4
2023-03-28T03:24:51.144Z,9.31
2023-03-28T03:39:53.409Z,9
2023-03-28T03:54:55.681Z,7.84
2023-03-28T04:09:57.998Z,7.72
2023-03-28T04:25:00.156Z,7.81
2023-03-28T04:40:02.682Z,7.57
2023-03-28T04:55:04.788Z,7.32
2023-03-28T05:10:06.895Z,6.56
2023-03-28T05:25:08.988Z,6.02
2023-03-28T05:40:11.129Z,5.84
2023-03-28T05:55:13.231Z,5.56
2023-03-28T06:10:15.495Z,5.46
2023-03-28T06:25:17.617Z,4.84
2023-03-28T06:40:19.752Z,4.72
2023-03-28T06:55:21.999Z,4.59
2023-03-28T07:10:24.108Z,4.13
2023-03-28T07:25:26.281Z,3.7
2023-03-28T07:40:28.577Z,4
2023-03-28T07:55:30.782Z,3.93
2023-03-28T08:10:32.916Z,3.53
2023-03-28T08:25:35.066Z,3.33
2023-03-28T08:40:37.175Z,3.36
2023-03-28T08:55:39.340Z,3.29
2023-03-28T09:10:41.574Z,3.07
2023-03-28T09:25:43.911Z,2.6
2023-03-28T09:40:46.132Z,2.77
2023-03-28T09:55:57.914Z,2.43
2023-03-28T10:11:05.913Z,2.4
2023-03-28T10:26:08.005Z,2.87
2023-03-28T10:41:10.122Z,2.53
2023-03-28T10:56:12.246Z,1.95
2023-03-28T11:11:14.431Z,2.11
2023-03-28T11:26:16.624Z,1.89
2023-03-28T11:41:18.782Z,1.83
2023-03-28T11:56:21.050Z,1.89
2023-03-28T12:11:23.091Z,1.43
2023-03-28T12:26:25.205Z,1.36
2023-03-28T12:41:27.343Z,1.23
2023-03-28T12:56:29.441Z,1.67
2023-03-28T13:11:31.500Z,1.25
2023-03-28T13:26:33.629Z,0.77
2023-03-28T13:41:35.923Z,0.91
2023-03-28T13:56:38.002Z,1.07
2023-03-28T14:11:40.088Z,1.08
2023-03-28T14:26:42.341Z,0.93
2023-03-28T14:41:44.492Z,2.36
2023-03-28T14:56:46.643Z,12.69
2023-03-28T15:11:48.736Z,5.97
2023-03-28T15:26:50.845Z,5.41
2023-03-28T15:41:52.961Z,9.83
2023-03-28T15:56:55.081Z,9.15
2023-03-28T16:11:57.278Z,7.42
2023-03-28T16:26:59.384Z,7.62
2023-03-28T16:42:01.468Z,8.84
2023-03-28T16:57:03.575Z,9.95
2023-03-28T17:12:05.718Z,9.68
2023-03-28T17:27:07.916Z,12.65
2023-03-28T17:42:10.051Z,12.41
2023-03-28T17:57:12.236Z,13.05
2023-03-28T18:12:14.397Z,14.03
2023-03-28T18:27:16.473Z,13.35
2023-03-28T18:42:18.815Z,13.11
2023-03-28T18:57:21.385Z,13.19
2023-03-28T19:12:23.648Z,13.31
2023-03-28T19:27:25.821Z,13.39
2023-03-28T19:42:27.940Z,13.36
2023-03-28T19:57:30.083Z,14.81
2023-03-28T20:12:32.220Z,15.71
2023-03-28T20:27:34.456Z,17.03
2023-03-28T20:42:36.579Z,17.49
2023-03-28T20:57:38.634Z,17.97
2023-03-28T21:12:40.827Z,17.77
2023-03-28T21:27:42.904Z,18.45
2023-03-28T21:42:45.085Z,19.08
2023-03-28T21:57:47.421Z,18.6
2023-03-28T22:12:49.515Z,18.02
2023-03-28T22:27:51.738Z,18.41
2023-03-28T22:42:54.009Z,18.43
2023-03-28T22:57:56.271Z,18.83
2023-03-28T23:12:58.509Z,18.18
2023-03-28T23:28:00.652Z,18.12
2023-03-28T23:43:02.774Z,17.87
2023-03-28T23:58:05.006Z,17.73
